createdAt,value
2022-09-05T00:01:30.252Z,4.80
2022-09-05T00:04:24.170Z,4.10
2022-09-05T00:06:58.829Z,4.32
2022-09-05T00:09:46.121Z,3.40
2022-09-05T00:12:14.407Z,3.65
2022-09-05T00:15:16.338Z,3.47
2022-09-05T00:19:37.031Z,3.20
2022-09-05T00:24:30.780Z,3.57
2022-09-05T00:24:33.159Z,3.50
2022-09-05T00:27:03.838Z,2.97
2022-09-05T00:31:05.951Z,3.07
2022-09-05T00:32:50.951Z,3.88
2022-09-05T00:35:19.194Z,4.00
2022-09-05T00:37:48.974Z,3.37
2022-09-05T00:40:18.347Z,4.60
2022-09-05T00:42:48.822Z,4.90
2022-09-05T00:45:27.456Z,3.85
2022-09-05T00:47:59.030Z,3.55
2022-09-05T00:50:35.873Z,3.60
2022-09-05T00:53:12.634Z,3.60
2022-09-05T00:55:58.884Z,3.53
2022-09-05T00:58:34.091Z,3.40
2022-09-05T01:01:16.342Z,3.23
2022-09-05T01:03:55.905Z,5.07
2022-09-05T01:06:43.041Z,3.80
2022-09-05T01:09:29.573Z,3.30
2022-09-05T01:11:56.946Z,3.73
2022-09-05T01:14:33.685Z,4.53
2022-09-05T01:17:19.854Z,3.67
2022-09-05T01:20:20.098Z,3.10
2022-09-05T01:23:08.570Z,3.70
2022-09-05T01:25:47.165Z,3.30
2022-09-05T01:29:15.390Z,3.40
2022-09-05T01:31:31.192Z,4.47
2022-09-05T01:34:05.665Z,4.30
2022-09-05T01:37:00.511Z,4.20
2022-09-05T01:40:15.411Z,5.73
2022-09-05T01:42:44.047Z,4.03
2022-09-05T01:45:17.411Z,4.23
2022-09-05T01:47:44.919Z,3.63
2022-09-05T01:50:21.311Z,5.23
2022-09-05T01:53:07.416Z,3.80
2022-09-05T01:56:04.475Z,4.10
2022-09-05T01:58:37.518Z,3.53
2022-09-05T02:01:25.528Z,3.83
2022-09-05T02:04:23.735Z,4.50
2022-09-05T02:06:54.042Z,4.10
2022-09-05T02:09:50.937Z,3.43
2022-09-05T02:12:43.023Z,4.53
2022-09-05T02:15:22.594Z,3.70
2022-09-05T02:17:52.371Z,3.77
2022-09-05T02:20:43.838Z,4.00
2022-09-05T02:23:40.881Z,3.33
2022-09-05T02:26:20.966Z,3.83
2022-09-05T02:28:54.913Z,3.50
2022-09-05T02:31:28.522Z,3.60
2022-09-05T02:34:11.165Z,3.63
2022-09-05T02:36:38.438Z,3.73
2022-09-05T02:45:01.049Z,4.07
2022-09-05T02:45:12.045Z,4.03
2022-09-05T02:45:17.571Z,5.70
2022-09-05T02:47:46.640Z,4.80
2022-09-05T02:56:31.656Z,5.77
2022-09-05T02:57:29.288Z,5.93
2022-09-05T02:57:40.616Z,3.77
2022-09-05T02:59:09.708Z,3.60
2022-09-05T03:01:49.863Z,3.70
2022-09-05T03:04:26.938Z,3.67
2022-09-05T03:06:57.406Z,3.43
2022-09-05T03:09:37.636Z,3.43
2022-09-05T03:12:29.149Z,3.73
2022-09-05T03:15:22.622Z,3.70
2022-09-05T03:18:31.205Z,4.03
2022-09-05T03:21:15.883Z,4.17
2022-09-05T03:23:55.573Z,4.13
2022-09-05T03:26:22.777Z,3.93
2022-09-05T03:29:03.350Z,4.67
2022-09-05T03:31:41.244Z,5.63
2022-09-05T03:34:23.860Z,4.17
2022-09-05T03:37:07.079Z,4.00
2022-09-05T03:39:37.455Z,3.77
2022-09-05T03:42:13.399Z,4.20
2022-09-05T03:44:45.524Z,4.70
2022-09-05T03:47:38.030Z,6.13
2022-09-05T03:55:12.193Z,5.70
2022-09-05T03:57:18.916Z,5.63
2022-09-05T03:57:22.673Z,4.80
2022-09-05T03:59:30.388Z,5.40
2022-09-05T04:04:33.776Z,5.07
2022-09-05T04:08:17.538Z,5.73
2022-09-05T04:08:27.684Z,5.73
2022-09-05T04:10:33.882Z,4.60
2022-09-05T04:13:20.415Z,6.00
2022-09-05T04:15:54.599Z,4.53
2022-09-05T04:18:33.379Z,5.10
2022-09-05T04:21:07.545Z,6.20
2022-09-05T04:23:34.882Z,6.93
2022-09-05T04:26:11.429Z,5.57
2022-09-05T04:28:55.049Z,7.23
2022-09-05T04:31:41.399Z,5.63
2022-09-05T04:34:27.749Z,7.43
2022-09-05T04:37:02.224Z,7.20
2022-09-05T04:39:29.993Z,5.93
2022-09-05T04:42:03.520Z,5.33
2022-09-05T04:44:41.701Z,6.80
2022-09-05T04:47:11.659Z,5.33
2022-09-05T04:49:44.540Z,6.17
2022-09-05T04:52:31.900Z,5.13
2022-09-05T04:55:14.575Z,6.60
2022-09-05T04:58:00.794Z,4.50
2022-09-05T05:06:00.673Z,4.20
2022-09-05T05:06:17.746Z,5.87
2022-09-05T05:06:38.121Z,3.47
2022-09-05T05:09:06.131Z,5.87
2022-09-05T05:17:58.728Z,3.93
2022-09-05T05:18:00.193Z,4.60
2022-09-05T05:18:36.744Z,4.60
2022-09-05T05:20:45.087Z,5.70
2022-09-05T05:23:19.742Z,4.43
2022-09-05T05:25:55.526Z,3.23
2022-09-05T05:28:29.137Z,3.87
2022-09-05T05:31:01.576Z,5.57
2022-09-05T05:33:33.397Z,4.63
2022-09-05T05:36:02.281Z,4.97
2022-09-05T05:38:38.833Z,5.57
2022-09-05T05:41:13.914Z,10.27
2022-09-05T05:43:46.218Z,8.63
2022-09-05T05:46:16.447Z,8.90
2022-09-05T05:48:45.658Z,7.23
2022-09-05T05:52:01.808Z,7.90
2022-09-05T05:54:25.578Z,6.83
2022-09-05T05:57:15.181Z,4.33
2022-09-05T05:59:56.270Z,7.07
2022-09-05T06:02:30.144Z,7.57
2022-09-05T06:05:03.936Z,8.27
2022-09-05T06:08:27.549Z,5.63
2022-09-05T06:14:54.960Z,5.20
2022-09-05T06:15:02.949Z,4.17
2022-09-05T06:16:20.596Z,4.57
2022-09-05T06:19:08.210Z,6.83
2022-09-05T06:22:08.968Z,4.33
2022-09-05T06:24:32.225Z,5.20
2022-09-05T06:27:07.249Z,11.52
2022-09-05T06:29:55.720Z,8.95
2022-09-05T06:32:38.668Z,8.35
2022-09-05T06:35:18.261Z,4.97
2022-09-05T06:37:48.661Z,5.40
2022-09-05T06:40:22.051Z,5.90
2022-09-05T06:42:52.403Z,5.70
2022-09-05T06:45:38.535Z,8.30
2022-09-05T06:48:14.531Z,5.22
2022-09-05T06:51:07.041Z,4.10
2022-09-05T06:53:54.937Z,4.13
2022-09-05T06:56:25.554Z,5.18
2022-09-05T06:59:12.205Z,4.07
2022-09-05T07:02:08.669Z,3.97
2022-09-05T07:05:23.580Z,4.30
2022-09-05T07:07:36.375Z,6.90
2022-09-05T07:10:22.374Z,4.40
2022-09-05T07:12:58.998Z,7.47
2022-09-05T07:15:35.470Z,7.55
2022-09-05T07:18:11.057Z,3.88
2022-09-05T07:21:16.233Z,5.45
2022-09-05T07:24:06.424Z,3.90
2022-09-05T07:26:53.946Z,3.28
2022-09-05T07:29:48.988Z,9.77
2022-09-05T07:32:30.105Z,4.25
2022-09-05T07:34:59.082Z,5.07
2022-09-05T07:37:30.079Z,5.40
2022-09-05T07:39:57.479Z,4.80
2022-09-05T07:42:33.655Z,4.00
2022-09-05T07:45:06.416Z,4.47
2022-09-05T07:47:35.965Z,3.75
2022-09-05T07:51:13.610Z,4.10
2022-09-05T07:56:51.596Z,3.97
2022-09-05T07:56:52.223Z,4.50
2022-09-05T07:58:45.996Z,4.55
2022-09-05T08:01:14.704Z,8.68
2022-09-05T08:03:44.145Z,3.88
2022-09-05T08:06:39.877Z,3.17
2022-09-05T08:09:47.525Z,3.70
2022-09-05T08:12:02.715Z,4.28
2022-09-05T08:14:55.652Z,3.00
2022-09-05T08:17:29.850Z,3.50
2022-09-05T08:20:02.483Z,3.05
2022-09-05T08:22:42.613Z,3.80
2022-09-05T08:25:23.421Z,3.20
2022-09-05T08:28:00.804Z,6.80
2022-09-05T08:30:28.411Z,5.07
2022-09-05T08:33:10.453Z,4.75
2022-09-05T08:35:42.481Z,6.57
2022-09-05T08:38:10.096Z,5.05
2022-09-05T08:40:42.173Z,2.75
2022-09-05T08:46:36.319Z,2.88
2022-09-05T08:46:39.918Z,2.80
2022-09-05T08:49:24.341Z,3.28
2022-09-05T08:52:12.503Z,3.22
2022-09-05T08:54:39.740Z,2.75
2022-09-05T08:57:13.432Z,4.00
2022-09-05T09:00:18.861Z,4.22
2022-09-05T09:02:48.117Z,2.33
2022-09-05T09:05:22.266Z,2.70
2022-09-05T09:07:57.736Z,2.40
2022-09-05T09:10:34.887Z,2.55
2022-09-05T09:13:05.432Z,3.10
2022-09-05T09:15:35.929Z,2.50
2022-09-05T09:18:10.577Z,4.57
2022-09-05T09:20:37.880Z,2.70
2022-09-05T09:23:31.915Z,3.10
2022-09-05T09:26:06.322Z,4.10
2022-09-05T09:28:50.419Z,5.03
2022-09-05T09:31:18.896Z,3.85
2022-09-05T09:34:05.024Z,2.83
2022-09-05T09:36:38.594Z,3.05
2022-09-05T09:39:08.095Z,2.50
2022-09-05T09:41:58.182Z,3.03
2022-09-05T09:44:45.671Z,2.90
2022-09-05T09:47:22.210Z,2.80
2022-09-05T09:50:04.628Z,3.17
2022-09-05T09:52:50.542Z,2.30
2022-09-05T09:55:41.032Z,2.42
2022-09-05T09:58:29.048Z,2.40
2022-09-05T10:01:20.270Z,3.35
2022-09-05T10:06:45.329Z,2.72
2022-09-05T10:10:47.946Z,3.83
2022-09-05T10:10:51.339Z,2.92
2022-09-05T10:12:53.389Z,4.75
2022-09-05T10:15:39.598Z,2.38
2022-09-05T10:18:24.040Z,2.20
2022-09-05T10:21:15.734Z,3.22
2022-09-05T10:23:47.544Z,4.00
2022-09-05T10:26:35.202Z,2.22
2022-09-05T10:29:11.832Z,2.58
2022-09-05T10:35:10.731Z,4.15
2022-09-05T10:35:17.611Z,3.45
2022-09-05T10:37:56.683Z,2.17
2022-09-05T10:40:25.680Z,4.88
2022-09-05T10:43:00.015Z,2.40
2022-09-05T10:45:33.485Z,4.93
2022-09-05T10:48:15.885Z,1.92
2022-09-05T10:50:50.808Z,2.22
2022-09-05T10:53:28.441Z,2.75
2022-09-05T10:56:17.407Z,2.85
2022-09-05T11:01:33.379Z,2.83
2022-09-05T11:02:28.365Z,3.55
2022-09-05T11:04:49.628Z,2.10
2022-09-05T11:07:27.891Z,2.22
2022-09-05T11:09:59.574Z,2.67
2022-09-05T11:12:46.130Z,2.30
2022-09-05T11:15:32.196Z,2.85
2022-09-05T11:18:04.050Z,2.72
2022-09-05T11:20:55.885Z,2.35
2022-09-05T11:23:25.677Z,1.80
2022-09-05T11:26:16.430Z,1.90
2022-09-05T11:29:13.278Z,1.88
2022-09-05T11:32:43.490Z,2.20
2022-09-05T11:39:52.235Z,2.83
2022-09-05T11:39:57.628Z,2.97
2022-09-05T11:41:00.301Z,1.80
2022-09-05T11:43:38.771Z,1.80
2022-09-05T11:46:09.285Z,2.20
2022-09-05T11:49:03.838Z,3.70
2022-09-05T11:51:49.917Z,7.75
2022-09-05T11:54:37.450Z,3.50
2022-09-05T11:57:33.879Z,1.98
2022-09-05T12:00:31.848Z,2.60
2022-09-05T12:03:01.401Z,2.00
2022-09-05T12:05:48.409Z,2.22
2022-09-05T12:08:26.265Z,3.63
2022-09-05T12:10:59.306Z,3.03
2022-09-05T12:13:51.213Z,2.10
2022-09-05T12:19:27.001Z,1.80
2022-09-05T12:21:57.697Z,2.13
2022-09-05T12:25:16.751Z,2.38
2022-09-05T12:27:45.991Z,2.15
2022-09-05T12:30:16.032Z,2.20
2022-09-05T12:36:02.539Z,1.77
2022-09-05T12:40:43.289Z,3.60
2022-09-05T12:41:32.916Z,2.03
2022-09-05T12:41:41.217Z,3.20
2022-09-05T12:42:11.422Z,2.50
2022-09-05T12:44:41.886Z,1.80
2022-09-05T12:47:18.657Z,2.40
2022-09-05T12:49:51.851Z,2.47
2022-09-05T12:52:35.596Z,3.20
2022-09-05T12:55:29.287Z,2.45
2022-09-05T13:02:55.152Z,2.35
2022-09-05T13:03:06.706Z,3.55
2022-09-05T13:04:13.354Z,3.22
2022-09-05T13:06:35.489Z,2.67
2022-09-05T13:09:06.541Z,2.42
2022-09-05T13:14:46.352Z,1.80
2022-09-05T13:15:07.960Z,2.08
2022-09-05T13:17:43.088Z,2.30
2022-09-05T13:20:35.451Z,2.63
2022-09-05T13:23:23.100Z,1.95
2022-09-05T13:25:58.743Z,2.45
2022-09-05T13:28:27.491Z,3.10
2022-09-05T13:37:54.040Z,2.25
2022-09-05T13:38:13.581Z,1.95
2022-09-05T13:38:29.125Z,2.85
2022-09-05T13:40:00.470Z,2.58
2022-09-05T13:42:30.907Z,2.67
2022-09-05T13:45:01.921Z,2.78
2022-09-05T13:47:30.656Z,3.13
2022-09-05T13:50:13.630Z,3.28
2022-09-05T13:52:47.825Z,2.33
2022-09-05T13:55:21.393Z,2.00
2022-09-05T13:57:51.843Z,2.55
2022-09-05T14:00:43.199Z,2.67
2022-09-05T14:03:39.348Z,2.35
2022-09-05T14:06:45.284Z,3.45
2022-09-05T14:11:55.565Z,2.20
2022-09-05T14:20:28.454Z,3.10
2022-09-05T14:23:01.154Z,3.25
2022-09-05T14:25:29.339Z,2.90
2022-09-05T14:28:00.398Z,9.13
2022-09-05T14:32:33.954Z,13.95
2022-09-05T14:37:50.483Z,8.75
2022-09-05T14:37:55.739Z,7.55
2022-09-05T14:39:25.994Z,4.15
2022-09-05T14:42:11.882Z,4.10
2022-09-05T14:44:42.433Z,3.40
2022-09-05T14:47:34.950Z,1.35
2022-09-05T14:50:04.203Z,2.20
2022-09-05T14:52:35.521Z,3.22
2022-09-05T14:55:19.346Z,4.25
2022-09-05T15:02:53.272Z,3.28
2022-09-05T15:02:54.898Z,3.78
2022-09-05T15:06:36.090Z,4.38
2022-09-05T15:12:18.301Z,3.00
2022-09-05T15:12:27.883Z,2.95
2022-09-05T15:14:45.200Z,3.85
2022-09-05T15:17:20.284Z,2.75
2022-09-05T15:20:06.530Z,3.58
2022-09-05T15:22:42.060Z,3.00
2022-09-05T15:25:17.274Z,2.55
2022-09-05T15:27:46.255Z,2.58
2022-09-05T15:30:34.990Z,2.22
2022-09-05T15:33:26.290Z,2.28
2022-09-05T15:35:54.261Z,5.50
2022-09-05T15:38:25.107Z,2.17
2022-09-05T15:41:02.810Z,2.38
2022-09-05T15:43:30.751Z,2.88
2022-09-05T15:46:05.464Z,3.67
2022-09-05T15:48:36.079Z,2.20
2022-09-05T15:51:19.941Z,2.05
2022-09-05T15:53:52.109Z,2.40
2022-09-05T15:56:25.086Z,2.25
2022-09-05T15:58:58.812Z,2.92
2022-09-05T16:01:48.609Z,2.05
2022-09-05T16:09:08.434Z,2.45
2022-09-05T16:10:35.228Z,1.80
2022-09-05T16:10:41.143Z,1.67
2022-09-05T16:12:47.229Z,4.72
2022-09-05T16:17:54.507Z,2.13
2022-09-05T16:23:14.594Z,2.00
2022-09-05T16:23:35.083Z,4.55
2022-09-05T16:24:04.839Z,1.98
2022-09-05T16:26:35.009Z,2.63
2022-09-05T16:29:14.042Z,3.40
2022-09-05T16:32:05.505Z,2.70
2022-09-05T16:34:43.087Z,1.67
2022-09-05T16:37:19.646Z,3.33
2022-09-05T16:40:10.701Z,3.78
2022-09-05T16:42:48.182Z,2.10
2022-09-05T16:45:21.982Z,2.60
2022-09-05T16:47:52.291Z,2.00
2022-09-05T16:50:34.159Z,3.13
2022-09-05T16:53:15.974Z,1.80
2022-09-05T16:55:54.991Z,3.10
2022-09-05T16:58:25.536Z,3.30
2022-09-05T17:01:10.972Z,4.50
2022-09-05T17:03:57.333Z,2.38
2022-09-05T17:06:32.607Z,2.45
2022-09-05T17:09:13.051Z,2.38
2022-09-05T17:12:00.064Z,3.40
2022-09-05T17:14:33.917Z,2.25
2022-09-05T17:17:20.135Z,3.65
2022-09-05T17:20:06.453Z,2.53
2022-09-05T17:26:29.237Z,2.92
2022-09-05T17:29:26.822Z,5.63
2022-09-05T17:29:28.741Z,5.20
2022-09-05T17:31:53.383Z,2.45
2022-09-05T17:34:25.699Z,4.45
2022-09-05T17:37:16.006Z,3.30
2022-09-05T17:39:48.767Z,3.95
2022-09-05T17:42:36.384Z,7.45
2022-09-05T17:45:04.192Z,3.33
2022-09-05T17:47:44.464Z,3.97
2022-09-05T17:50:18.876Z,5.75
2022-09-05T17:53:25.649Z,5.35
2022-09-05T17:55:55.112Z,4.20
2022-09-05T17:58:24.209Z,3.88
2022-09-05T18:00:51.953Z,4.47
2022-09-05T18:03:34.821Z,5.35
2022-09-05T18:06:03.967Z,5.45
2022-09-05T18:08:47.991Z,5.38
2022-09-05T18:11:25.649Z,7.00
2022-09-05T18:14:02.828Z,7.20
2022-09-05T18:17:36.346Z,8.40
2022-09-05T18:19:34.118Z,6.53
2022-09-05T18:25:27.797Z,8.95
2022-09-05T18:28:09.561Z,7.78
2022-09-05T18:30:37.944Z,8.23
2022-09-05T18:33:53.669Z,5.43
2022-09-05T18:35:57.727Z,6.35
2022-09-05T18:38:50.922Z,4.90
2022-09-05T18:41:18.815Z,6.25
2022-09-05T18:44:07.603Z,5.63
2022-09-05T18:47:31.960Z,6.32
2022-09-05T18:50:25.922Z,3.78
2022-09-05T18:52:48.870Z,3.75
2022-09-05T18:56:10.402Z,3.92
2022-09-05T18:58:25.737Z,5.53
2022-09-05T19:00:54.889Z,4.70
2022-09-05T19:03:29.423Z,5.32
2022-09-05T19:06:36.557Z,4.00
2022-09-05T19:08:52.054Z,7.65
2022-09-05T19:11:28.232Z,4.00
2022-09-05T19:14:26.252Z,5.00
2022-09-05T19:16:59.022Z,6.70
2022-09-05T19:19:31.576Z,10.52
2022-09-05T19:22:45.211Z,6.05
2022-09-05T19:24:49.999Z,8.00
2022-09-05T19:33:22.455Z,5.10
2022-09-05T19:36:49.131Z,7.03
2022-09-05T19:36:55.953Z,5.38
2022-09-05T19:36:59.504Z,4.00
2022-09-05T19:42:26.035Z,12.23
2022-09-05T19:47:29.164Z,4.50
2022-09-05T19:47:52.051Z,4.60
2022-09-05T19:48:03.829Z,7.00
2022-09-05T19:50:20.011Z,4.68
2022-09-05T19:52:50.031Z,4.45
2022-09-05T19:55:22.646Z,5.32
2022-09-05T19:58:19.476Z,7.80
2022-09-05T20:00:40.322Z,5.50
2022-09-05T20:03:07.945Z,5.30
2022-09-05T20:05:39.223Z,5.20
2022-09-05T20:08:08.135Z,6.95
2022-09-05T20:10:36.446Z,4.30
2022-09-05T20:13:22.364Z,7.55
2022-09-05T20:15:50.083Z,8.77
2022-09-05T20:18:25.153Z,5.72
2022-09-05T20:20:57.983Z,10.13
2022-09-05T20:23:26.187Z,5.45
2022-09-05T20:25:54.673Z,6.82
2022-09-05T20:28:23.745Z,6.82
2022-09-05T20:30:56.524Z,6.50
2022-09-05T20:33:26.792Z,5.50
2022-09-05T20:43:12.495Z,5.22
2022-09-05T20:43:17.263Z,6.88
2022-09-05T20:43:18.212Z,5.95
2022-09-05T20:44:25.055Z,5.95
2022-09-05T20:49:57.627Z,5.05
2022-09-05T20:54:04.368Z,9.10
2022-09-05T20:54:22.584Z,5.18
2022-09-05T20:55:41.330Z,6.15
2022-09-05T20:58:11.510Z,7.32
2022-09-05T21:01:20.176Z,6.32
2022-09-05T21:03:40.957Z,4.43
2022-09-05T21:06:27.511Z,4.63
2022-09-05T21:08:56.160Z,4.57
2022-09-05T21:11:31.007Z,4.00
2022-09-05T21:14:00.539Z,5.78
2022-09-05T21:16:29.371Z,5.72
2022-09-05T21:18:56.796Z,5.85
2022-09-05T21:21:30.163Z,4.35
2022-09-05T21:24:18.872Z,3.28
2022-09-05T21:26:50.084Z,3.25
2022-09-05T21:29:32.220Z,9.45
2022-09-05T21:32:01.204Z,5.68
2022-09-05T21:34:33.142Z,5.32
2022-09-05T21:37:07.933Z,6.78
2022-09-05T21:39:51.957Z,5.32
2022-09-05T21:44:07.353Z,8.88
2022-09-05T21:47:47.980Z,6.50
2022-09-05T21:48:06.355Z,5.28
2022-09-05T21:50:38.288Z,5.72
2022-09-05T21:54:46.031Z,4.55
2022-09-05T21:59:22.460Z,3.95
2022-09-05T21:59:29.948Z,4.25
2022-09-05T22:01:51.522Z,3.83
2022-09-05T22:04:22.024Z,4.72
2022-09-05T22:06:49.853Z,7.43
2022-09-05T22:09:18.212Z,4.43
2022-09-05T22:11:50.704Z,5.43
2022-09-05T22:14:18.898Z,3.80
2022-09-05T22:16:47.491Z,4.07
2022-09-05T22:19:17.868Z,3.85
2022-09-05T22:21:45.381Z,3.65
2022-09-05T22:24:13.303Z,3.53
2022-09-05T22:27:10.828Z,3.08
2022-09-05T22:29:35.015Z,4.15
2022-09-05T22:32:02.503Z,6.05
2022-09-05T22:34:30.000Z,3.88
2022-09-05T22:36:57.603Z,5.50
2022-09-05T22:39:36.377Z,5.65
2022-09-05T22:42:10.191Z,4.32
2022-09-05T22:44:40.348Z,4.45
2022-09-05T22:47:10.789Z,7.53
2022-09-05T22:49:38.124Z,4.32
2022-09-05T22:52:06.378Z,3.80
2022-09-05T22:54:33.968Z,6.80
2022-09-05T22:57:01.335Z,4.80
2022-09-05T22:59:28.775Z,4.50
2022-09-05T23:01:56.104Z,6.18
2022-09-05T23:04:23.864Z,3.60
2022-09-05T23:06:51.212Z,3.08
2022-09-05T23:09:18.527Z,3.47
2022-09-05T23:11:45.859Z,3.67
2022-09-05T23:14:13.150Z,3.70
2022-09-05T23:16:40.393Z,4.00
2022-09-05T23:19:07.827Z,4.53
2022-09-05T23:21:35.247Z,5.22
2022-09-05T23:24:02.728Z,4.55
2022-09-05T23:26:29.979Z,4.80
2022-09-05T23:28:57.528Z,5.57
2022-09-05T23:31:24.863Z,4.20
2022-09-05T23:33:52.363Z,4.82
2022-09-05T23:36:19.649Z,4.93
2022-09-05T23:38:46.900Z,5.07
2022-09-05T23:41:15.162Z,6.50
2022-09-05T23:43:42.784Z,6.72
2022-09-05T23:46:10.118Z,5.55
2022-09-05T23:48:37.770Z,5.72
2022-09-05T23:51:09.401Z,4.53
2022-09-05T23:53:36.676Z,4.50
2022-09-05T23:56:05.031Z,4.85
2022-09-05T23:58:33.003Z,7.47
